Manor, Texas
Current Conditions -  °F | °C
As of 5:55 PM on Saturday 22 Nov 2014 (Local Time) from KEDC Reporting Station
Overcast Overcast  
Wind Chill: 63°   Ceiling: 1400
Heat Index: 63°   Visibility: 10mi
Dew Point: 63°   Wind: 6mph
Humidity: 100%   Direction: 50°NE
Pressure: 29.78"   Gusts: NA
Location:  30.34°N, 97.56°W
Report Text: KEDC 222355Z AUTO 05005KT 10SM SCT007 BKN014 OVC040 17/17 A2978 RMK AO2 P0017
Loading
Personal Weather Stations






























Interactive Weather Map New forecast layout! Learn more

10-Day Weather Forecast

Advertisements
Track Severe Weather on mobile